Victory — E5U2349 — position and weather

sailwx.info

Track history (hours):
 
Tides and Currents Weather Stations Pressure Air Temp Water Temp Dewpoint Dewpoint Depression Visibility Wind Speed Wind Dir Waves Ship Positions

Victory

Last reported at 2016-Jun-30 19:07 UTC. Time now 2016-Jul-01 20:50 UTC.
Position N 38°11' E 020°29'.

Length 51 m; draft 3 m.

Type: Pleasure craft. MMSI: 518399000.

Date/timePositionNaut miles runAvg speedWind from/ knotsBaromVisibWave heightAir tempDewpointWater temp
2016-Jun-30 19:07N 38°11' E 020°29'0 0.0
2016-Jun-30 18:33N 38°11' E 020°29'0 0.0
2016-Jun-30 17:32N 38°11' E 020°29'2 1.7
2016-Jun-30 16:33N 38°10' E 020°28'1111.4
2016-Jun-30 15:33N 38°03' E 020°39'  
2016-Jun-23 00:12N 37°54' E 015°47'913.6
2016-Jun-22 23:33N 37°59' E 015°38'1313.5
2016-Jun-22 22:33N 38°12' E 015°35'1313.1
2016-Jun-22 21:33N 38°25' E 015°38'14614.3
2016-Jun-22 11:18N 40°38' E 014°17'8 0.3
2016-Jun-21 12:23N 40°35' E 014°26'4 5.0
2016-Jun-21 11:33N 40°34' E 014°21'5 5.2
2016-Jun-21 10:30N 40°34' E 014°14'0 0.0
2016-Jun-21 09:30N 40°34' E 014°14'1 0.1
2016-Jun-20 20:07N 40°33' E 014°15'0 0.0
2016-Jun-20 19:31N 40°33' E 014°15'  
Track history (hours):
 
Tides and Currents Weather Stations Pressure Air Temp Water Temp Dewpoint Dewpoint Depression Visibility Wind Speed Wind Dir Waves Ship Positions

Victory

Last reported at 2016-Jun-30 19:07 UTC. Time now 2016-Jul-01 20:50 UTC.
Position N 38°11' E 020°29'.

Length 51 m; draft 3 m.

Type: Pleasure craft. MMSI: 518399000.

Date/timePositionNaut miles runAvg speedWind from/ knotsBaromVisibWave heightAir tempDewpointWater temp
2016-Jun-30 19:07N 38°11' E 020°29'0 0.0
2016-Jun-30 18:33N 38°11' E 020°29'0 0.0
2016-Jun-30 17:32N 38°11' E 020°29'2 1.7
2016-Jun-30 16:33N 38°10' E 020°28'1111.4
2016-Jun-30 15:33N 38°03' E 020°39'  
2016-Jun-23 00:12N 37°54' E 015°47'913.6
2016-Jun-22 23:33N 37°59' E 015°38'1313.5
2016-Jun-22 22:33N 38°12' E 015°35'1313.1
2016-Jun-22 21:33N 38°25' E 015°38'14614.3
2016-Jun-22 11:18N 40°38' E 014°17'8 0.3
2016-Jun-21 12:23N 40°35' E 014°26'4 5.0
2016-Jun-21 11:33N 40°34' E 014°21'5 5.2
2016-Jun-21 10:30N 40°34' E 014°14'0 0.0
2016-Jun-21 09:30N 40°34' E 014°14'1 0.1
2016-Jun-20 20:07N 40°33' E 014°15'0 0.0
2016-Jun-20 19:31N 40°33' E 014°15'  

Dump ship's entire track history